sensor_id;sensor_type;location;lat;lon;timestamp;pressure;altitude;pressure_sealevel;temperature;humidity
48517;BME280;34310;51.904;4.256;2023-03-15T00:00:52;101252.34;;;16.20;55.28
48517;BME280;34310;51.904;4.256;2023-03-15T00:03:22;101266.19;;;16.19;55.36
48517;BME280;34310;51.904;4.256;2023-03-15T00:05:52;101265.25;;;16.19;55.37
48517;BME280;34310;51.904;4.256;2023-03-15T00:08:19;101276.47;;;16.18;55.24
48517;BME280;34310;51.904;4.256;2023-03-15T00:10:48;101271.19;;;16.16;55.33
48517;BME280;34310;51.904;4.256;2023-03-15T00:13:15;101285.91;;;16.16;55.41
48517;BME280;34310;51.904;4.256;2023-03-15T00:15:46;101273.72;;;16.15;55.32
48517;BME280;34310;51.904;4.256;2023-03-15T00:18:15;101278.84;;;16.13;55.34
48517;BME280;34310;51.904;4.256;2023-03-15T00:20:42;101290.06;;;16.12;55.45
48517;BME280;34310;51.904;4.256;2023-03-15T00:23:10;101278.75;;;16.11;55.52
48517;BME280;34310;51.904;4.256;2023-03-15T00:25:37;101290.78;;;16.09;55.45
48517;BME280;34310;51.904;4.256;2023-03-15T00:28:05;101294.28;;;16.10;55.36
48517;BME280;34310;51.904;4.256;2023-03-15T00:30:33;101294.22;;;16.08;55.49
48517;BME280;34310;51.904;4.256;2023-03-15T00:33:00;101299.41;;;16.08;55.49
48517;BME280;34310;51.904;4.256;2023-03-15T00:35:27;101301.94;;;16.07;55.45
48517;BME280;34310;51.904;4.256;2023-03-15T00:37:55;101314.97;;;16.07;55.34
48517;BME280;34310;51.904;4.256;2023-03-15T00:40:24;101314.88;;;16.05;55.42
48517;BME280;34310;51.904;4.256;2023-03-15T00:42:51;101322.69;;;16.05;55.57
48517;BME280;34310;51.904;4.256;2023-03-15T00:45:20;101307.88;;;16.04;55.42
48517;BME280;34310;51.904;4.256;2023-03-15T00:47:49;101325.22;;;16.04;55.43
48517;BME280;34310;51.904;4.256;2023-03-15T00:50:16;101314.72;;;16.02;55.43
48517;BME280;34310;51.904;4.256;2023-03-15T00:52:44;101321.53;;;16.00;55.46
48517;BME280;34310;51.904;4.256;2023-03-15T00:55:17;101324.97;;;15.99;55.34
48517;BME280;34310;51.904;4.256;2023-03-15T00:57:45;101328.38;;;15.98;55.47
48517;BME280;34310;51.904;4.256;2023-03-15T01:00:16;101330.97;;;15.98;55.55
48517;BME280;34310;51.904;4.256;2023-03-15T01:02:46;101335.28;;;15.98;55.41
48517;BME280;34310;51.904;4.256;2023-03-15T01:05:13;101341.31;;;15.97;55.61
48517;BME280;34310;51.904;4.256;2023-03-15T01:07:41;101332.44;;;15.93;55.50
48517;BME280;34310;51.904;4.256;2023-03-15T01:10:13;101346.44;;;15.95;55.53
48517;BME280;34310;51.904;4.256;2023-03-15T01:12:41;101339.44;;;15.94;55.45
48517;BME280;34310;51.904;4.256;2023-03-15T01:15:10;101339.34;;;15.93;55.65
48517;BME280;34310;51.904;4.256;2023-03-15T01:17:38;101345.38;;;15.92;55.53
48517;BME280;34310;51.904;4.256;2023-03-15T01:20:06;101343.56;;;15.91;55.49
48517;BME280;34310;51.904;4.256;2023-03-15T01:22:34;101349.56;;;15.90;55.57
48517;BME280;34310;51.904;4.256;2023-03-15T01:25:01;101342.56;;;15.89;55.55
48517;BME280;34310;51.904;4.256;2023-03-15T01:27:28;101340.75;;;15.88;55.62
48517;BME280;34310;51.904;4.256;2023-03-15T01:29:56;101349.38;;;15.87;55.50
48517;BME280;34310;51.904;4.256;2023-03-15T01:32:23;101360.69;;;15.87;55.61
48517;BME280;34310;51.904;4.256;2023-03-15T01:34:50;101369.31;;;15.86;55.53
48517;BME280;34310;51.904;4.256;2023-03-15T01:37:18;101368.34;;;15.84;55.62
48517;BME280;34310;51.904;4.256;2023-03-15T01:39:47;101368.34;;;15.84;55.70
48517;BME280;34310;51.904;4.256;2023-03-15T01:42:14;101369.97;;;15.82;55.59
48517;BME280;34310;51.904;4.256;2023-03-15T01:47:17;101382.88;;;15.80;55.62
48517;BME280;34310;51.904;4.256;2023-03-15T01:49:48;101378.41;;;15.78;55.73
48517;BME280;34310;51.904;4.256;2023-03-15T01:52:21;101380.09;;;15.77;55.71
48517;BME280;34310;51.904;4.256;2023-03-15T01:55:02;101388.81;;;15.78;55.68
48517;BME280;34310;51.904;4.256;2023-03-15T02:00:13;101379.13;;;15.75;55.78
48517;BME280;34310;51.904;4.256;2023-03-15T02:02:46;101389.53;;;15.75;55.71
48517;BME280;34310;51.904;4.256;2023-03-15T02:05:20;101384.25;;;15.74;55.51
48517;BME280;34310;51.904;4.256;2023-03-15T02:07:48;101385.88;;;15.72;55.71
48517;BME280;34310;51.904;4.256;2023-03-15T02:10:41;101392.88;;;15.73;55.71
48517;BME280;34310;51.904;4.256;2023-03-15T02:13:08;101396.09;;;15.69;55.69
48517;BME280;34310;51.904;4.256;2023-03-15T02:15:37;101397.00;;;15.69;55.84
48517;BME280;34310;51.904;4.256;2023-03-15T02:18:04;101410.81;;;15.68;55.68
48517;BME280;34310;51.904;4.256;2023-03-15T02:23:21;101400.31;;;15.67;55.69
48517;BME280;34310;51.904;4.256;2023-03-15T02:26:02;101409.75;;;15.65;55.77
48517;BME280;34310;51.904;4.256;2023-03-15T02:28:32;101410.56;;;15.64;55.79
48517;BME280;34310;51.904;4.256;2023-03-15T02:30:59;101413.16;;;15.64;55.79
48517;BME280;34310;51.904;4.256;2023-03-15T02:33:35;101418.16;;;15.61;55.82
48517;BME280;34310;51.904;4.256;2023-03-15T02:38:48;101426.75;;;15.60;55.84
48517;BME280;34310;51.904;4.256;2023-03-15T02:41:30;101432.66;;;15.57;56.02
48517;BME280;34310;51.904;4.256;2023-03-15T02:44:10;101438.75;;;15.58;55.97
48517;BME280;34310;51.904;4.256;2023-03-15T02:46:39;101436.97;;;15.57;56.01
48517;BME280;34310;51.904;4.256;2023-03-15T02:49:08;101445.56;;;15.56;55.94
48517;BME280;34310;51.904;4.256;2023-03-15T02:51:37;101451.59;;;15.55;55.96
48517;BME280;34310;51.904;4.256;2023-03-15T02:54:04;101457.59;;;15.54;55.94
48517;BME280;34310;51.904;4.256;2023-03-15T02:56:31;101461.00;;;15.53;56.06
48517;BME280;34310;51.904;4.256;2023-03-15T02:59:00;101464.41;;;15.52;55.89
48517;BME280;34310;51.904;4.256;2023-03-15T03:01:27;101467.84;;;15.50;55.91
48517;BME280;34310;51.904;4.256;2023-03-15T03:03:54;101477.34;;;15.50;55.99
48517;BME280;34310;51.904;4.256;2023-03-15T03:06:22;101471.25;;;15.49;55.88
48517;BME280;34310;51.904;4.256;2023-03-15T03:08:49;101474.66;;;15.48;55.91
48517;BME280;34310;51.904;4.256;2023-03-15T03:11:17;101481.47;;;15.46;56.01
48517;BME280;34310;51.904;4.256;2023-03-15T03:13:44;101487.66;;;15.48;56.09
48517;BME280;34310;51.904;4.256;2023-03-15T03:16:12;101481.56;;;15.48;56.07
48517;BME280;34310;51.904;4.256;2023-03-15T03:18:39;101482.34;;;15.47;56.00
48517;BME280;34310;51.904;4.256;2023-03-15T03:21:08;101484.88;;;15.45;55.88
48517;BME280;34310;51.904;4.256;2023-03-15T03:23:36;101489.97;;;15.44;55.93
48517;BME280;34310;51.904;4.256;2023-03-15T03:26:12;101492.59;;;15.44;56.10
48517;BME280;34310;51.904;4.256;2023-03-15T03:28:44;101489.88;;;15.42;56.05
48517;BME280;34310;51.904;4.256;2023-03-15T03:31:26;101492.50;;;15.42;55.94
48517;BME280;34310;51.904;4.256;2023-03-15T03:33:55;101495.00;;;15.41;55.99
48517;BME280;34310;51.904;4.256;2023-03-15T03:36:23;101497.59;;;15.41;56.15
48517;BME280;34310;51.904;4.256;2023-03-15T03:38:51;101500.91;;;15.38;56.10
48517;BME280;34310;51.904;4.256;2023-03-15T03:41:19;101509.63;;;15.39;56.06
48517;BME280;34310;51.904;4.256;2023-03-15T03:43:47;101522.63;;;15.39;56.00
48517;BME280;34310;51.904;4.256;2023-03-15T03:46:15;101525.16;;;15.37;56.11
48517;BME280;34310;51.904;4.256;2023-03-15T03:48:42;101521.56;;;15.35;56.05
48517;BME280;34310;51.904;4.256;2023-03-15T03:51:09;101531.06;;;15.35;56.06
48517;BME280;34310;51.904;4.256;2023-03-15T03:53:37;101529.34;;;15.35;56.09
48517;BME280;34310;51.904;4.256;2023-03-15T03:56:05;101524.97;;;15.34;56.04
48517;BME280;34310;51.904;4.256;2023-03-15T03:58:33;101525.75;;;15.33;56.23
48517;BME280;34310;51.904;4.256;2023-03-15T04:01:00;101538.63;;;15.32;56.17
48517;BME280;34310;51.904;4.256;2023-03-15T04:03:28;101536.94;;;15.32;56.12
48517;BME280;34310;51.904;4.256;2023-03-15T04:05:56;101535.03;;;15.30;56.16
48517;BME280;34310;51.904;4.256;2023-03-15T04:08:25;101540.25;;;15.30;56.25
48517;BME280;34310;51.904;4.256;2023-03-15T04:10:54;101542.75;;;15.28;56.18
48517;BME280;34310;51.904;4.256;2023-03-15T04:13:22;101548.75;;;15.27;56.10
48517;BME280;34310;51.904;4.256;2023-03-15T04:15:50;101546.16;;;15.27;56.14
48517;BME280;34310;51.904;4.256;2023-03-15T04:18:18;101551.38;;;15.27;56.24
48517;BME280;34310;51.904;4.256;2023-03-15T04:20:46;101555.56;;;15.25;56.11
48517;BME280;34310;51.904;4.256;2023-03-15T04:23:14;101549.47;;;15.25;56.15
48517;BME280;34310;51.904;4.256;2023-03-15T04:25:42;101559.78;;;15.23;56.15
48517;BME280;34310;51.904;4.256;2023-03-15T04:28:09;101575.38;;;15.23;56.24
48517;BME280;34310;51.904;4.256;2023-03-15T04:30:37;101580.59;;;15.23;56.34
48517;BME280;34310;51.904;4.256;2023-03-15T04:33:05;101582.19;;;15.21;56.37
48517;BME280;34310;51.904;4.256;2023-03-15T04:35:34;101581.41;;;15.22;56.25
48517;BME280;34310;51.904;4.256;2023-03-15T04:38:02;101586.50;;;15.21;56.27
48517;BME280;34310;51.904;4.256;2023-03-15T04:40:31;101596.81;;;15.19;56.36
48517;BME280;34310;51.904;4.256;2023-03-15T04:43:03;101604.63;;;15.19;56.31
48517;BME280;34310;51.904;4.256;2023-03-15T04:45:31;101605.31;;;15.16;56.42
48517;BME280;34310;51.904;4.256;2023-03-15T04:48:00;101608.72;;;15.15;56.46
48517;BME280;34310;51.904;4.256;2023-03-15T04:50:29;101610.44;;;15.15;56.48
48517;BME280;34310;51.904;4.256;2023-03-15T04:52:59;101620.84;;;15.15;56.37
48517;BME280;34310;51.904;4.256;2023-03-15T04:55:27;101622.44;;;15.13;56.46
48517;BME280;34310;51.904;4.256;2023-03-15T04:57:55;101628.44;;;15.12;56.42
48517;BME280;34310;51.904;4.256;2023-03-15T05:00:22;101629.25;;;15.11;56.48
48517;BME280;34310;51.904;4.256;2023-03-15T05:02:50;101633.53;;;15.10;56.43
48517;BME280;34310;51.904;4.256;2023-03-15T05:05:22;101631.75;;;15.09;56.51
48517;BME280;34310;51.904;4.256;2023-03-15T05:07:50;101635.25;;;15.10;56.49
48517;BME280;34310;51.904;4.256;2023-03-15T05:10:17;101631.66;;;15.08;56.47
48517;BME280;34310;51.904;4.256;2023-03-15T05:12:45;101635.94;;;15.07;56.53
48517;BME280;34310;51.904;4.256;2023-03-15T05:15:12;101635.84;;;15.06;56.49
48517;BME280;34310;51.904;4.256;2023-03-15T05:17:40;101637.56;;;15.05;56.46
48517;BME280;34310;51.904;4.256;2023-03-15T05:20:08;101647.06;;;15.05;56.56
48517;BME280;34310;51.904;4.256;2023-03-15T05:22:39;101647.06;;;15.05;56.45
48517;BME280;34310;51.904;4.256;2023-03-15T05:25:08;101655.66;;;15.04;56.57
48517;BME280;34310;51.904;4.256;2023-03-15T05:27:37;101659.03;;;15.03;56.59
48517;BME280;34310;51.904;4.256;2023-03-15T05:30:05;101662.41;;;15.02;56.57
48517;BME280;34310;51.904;4.256;2023-03-15T05:32:33;101650.22;;;15.01;56.50
48517;BME280;34310;51.904;4.256;2023-03-15T05:35:02;101657.13;;;15.00;56.54
48517;BME280;34310;51.904;4.256;2023-03-15T05:37:30;101663.13;;;14.99;56.60
48517;BME280;34310;51.904;4.256;2023-03-15T05:39:58;101663.94;;;14.98;56.67
48517;BME280;34310;51.904;4.256;2023-03-15T05:42:26;101667.44;;;14.99;56.53
48517;BME280;34310;51.904;4.256;2023-03-15T05:44:54;101669.03;;;14.97;56.56
48517;BME280;34310;51.904;4.256;2023-03-15T05:47:22;101675.94;;;14.96;56.64
48517;BME280;34310;51.904;4.256;2023-03-15T05:49:50;101676.72;;;14.95;56.58
48517;BME280;34310;51.904;4.256;2023-03-15T05:52:18;101686.22;;;14.95;56.63
48517;BME280;34310;51.904;4.256;2023-03-15T05:54:45;101682.72;;;14.94;56.63
48517;BME280;34310;51.904;4.256;2023-03-15T05:57:13;101692.22;;;14.94;56.67
48517;BME280;34310;51.904;4.256;2023-03-15T05:59:40;101700.03;;;14.94;56.62
48517;BME280;34310;51.904;4.256;2023-03-15T06:02:08;101710.44;;;14.94;56.54
48517;BME280;34310;51.904;4.256;2023-03-15T06:04:35;101713.03;;;14.94;56.59
48517;BME280;34310;51.904;4.256;2023-03-15T06:07:04;101716.34;;;14.91;56.50
48517;BME280;34310;51.904;4.256;2023-03-15T06:09:32;101723.22;;;14.91;56.55
48517;BME280;34310;51.904;4.256;2023-03-15T06:11:59;101728.44;;;14.91;56.65
48517;BME280;34310;51.904;4.256;2023-03-15T06:14:27;101728.34;;;14.89;56.65
48517;BME280;34310;51.904;4.256;2023-03-15T06:16:54;101734.44;;;14.90;56.62
48517;BME280;34310;51.904;4.256;2023-03-15T06:19:22;101739.63;;;14.90;56.71
48517;BME280;34310;51.904;4.256;2023-03-15T06:21:50;101742.94;;;14.87;56.66
48517;BME280;34310;51.904;4.256;2023-03-15T06:24:17;101755.03;;;14.86;56.76
48517;BME280;34310;51.904;4.256;2023-03-15T06:26:44;101753.31;;;14.87;56.65
48517;BME280;34310;51.904;4.256;2023-03-15T06:29:12;101755.81;;;14.85;56.80
48517;BME280;34310;51.904;4.256;2023-03-15T06:31:39;101749.72;;;14.85;56.98
48517;BME280;34310;51.904;4.256;2023-03-15T06:34:06;101751.41;;;14.84;56.88
48517;BME280;34310;51.904;4.256;2023-03-15T06:36:34;101760.91;;;14.84;56.92
48517;BME280;34310;51.904;4.256;2023-03-15T06:39:03;101767.03;;;14.84;56.92
48517;BME280;34310;51.904;4.256;2023-03-15T06:41:31;101767.03;;;14.84;56.88
48517;BME280;34310;51.904;4.256;2023-03-15T06:43:59;101767.94;;;14.85;56.76
48517;BME280;34310;51.904;4.256;2023-03-15T06:46:26;101776.63;;;14.85;56.71
48517;BME280;34310;51.904;4.256;2023-03-15T06:48:53;101780.94;;;14.85;56.91
48517;BME280;34310;51.904;4.256;2023-03-15T06:51:21;101786.22;;;14.86;56.76
48517;BME280;34310;51.904;4.256;2023-03-15T06:53:49;101774.94;;;14.86;56.83
48517;BME280;34310;51.904;4.256;2023-03-15T06:56:16;101787.13;;;14.87;56.75
48517;BME280;34310;51.904;4.256;2023-03-15T06:58:44;101781.72;;;14.84;56.90
48517;BME280;34310;51.904;4.256;2023-03-15T07:01:12;101796.63;;;14.86;56.90
48517;BME280;34310;51.904;4.256;2023-03-15T07:03:41;101794.81;;;14.85;56.87
48517;BME280;34310;51.904;4.256;2023-03-15T07:06:08;101799.22;;;14.86;56.80
48517;BME280;34310;51.904;4.256;2023-03-15T07:08:36;101801.81;;;14.86;56.76
48517;BME280;34310;51.904;4.256;2023-03-15T07:11:03;101807.94;;;14.87;56.74
48517;BME280;34310;51.904;4.256;2023-03-15T07:13:32;101811.31;;;14.86;56.66
48517;BME280;34310;51.904;4.256;2023-03-15T07:15:59;101812.22;;;14.86;56.70
48517;BME280;34310;51.904;4.256;2023-03-15T07:18:27;101815.72;;;14.87;56.69
48517;BME280;34310;51.904;4.256;2023-03-15T07:21:01;101822.63;;;14.86;56.63
48517;BME280;34310;51.904;4.256;2023-03-15T07:23:30;101823.53;;;14.87;56.72
48517;BME280;34310;51.904;4.256;2023-03-15T07:25:57;101824.44;;;14.87;56.74
48517;BME280;34310;51.904;4.256;2023-03-15T07:28:26;101828.72;;;14.87;56.81
48517;BME280;34310;51.904;4.256;2023-03-15T07:31:01;101833.03;;;14.86;56.84
48517;BME280;34310;51.904;4.256;2023-03-15T07:33:31;101836.53;;;14.87;56.77
48517;BME280;34310;51.904;4.256;2023-03-15T07:35:59;101835.63;;;14.86;56.82
48517;BME280;34310;51.904;4.256;2023-03-15T07:38:27;101842.41;;;14.84;56.80
48517;BME280;34310;51.904;4.256;2023-03-15T07:40:55;101857.22;;;14.85;56.90
48517;BME280;34310;51.904;4.256;2023-03-15T07:43:23;101864.13;;;14.85;56.73
48517;BME280;34310;51.904;4.256;2023-03-15T07:45:51;101865.81;;;14.84;56.80
48517;BME280;34310;51.904;4.256;2023-03-15T07:48:18;101863.22;;;14.84;56.85
48517;BME280;34310;51.904;4.256;2023-03-15T07:50:46;101865.81;;;14.84;56.91
48517;BME280;34310;51.904;4.256;2023-03-15T07:53:13;101866.72;;;14.85;56.87
48517;BME280;34310;51.904;4.256;2023-03-15T07:55:40;101861.31;;;14.82;56.91
48517;BME280;34310;51.904;4.256;2023-03-15T07:58:08;101870.13;;;14.84;56.76
48517;BME280;34310;51.904;4.256;2023-03-15T08:00:35;101878.03;;;14.85;56.54
48517;BME280;34310;51.904;4.256;2023-03-15T08:03:03;101883.22;;;14.85;56.79
48517;BME280;34310;51.904;4.256;2023-03-15T08:05:32;101888.53;;;14.87;56.85
48517;BME280;34310;51.904;4.256;2023-03-15T08:08:00;101896.34;;;14.87;56.71
48517;BME280;34310;51.904;4.256;2023-03-15T08:10:27;101892.81;;;14.86;56.95
48517;BME280;34310;51.904;4.256;2023-03-15T08:12:55;101900.72;;;14.88;56.96
48517;BME280;34310;51.904;4.256;2023-03-15T08:15:22;101906.84;;;14.88;56.97
48517;BME280;34310;51.904;4.256;2023-03-15T08:17:49;101908.53;;;14.88;57.05
48517;BME280;34310;51.904;4.256;2023-03-15T08:20:17;101907.63;;;14.87;57.11
48517;BME280;34310;51.904;4.256;2023-03-15T08:22:46;101897.34;;;14.89;56.96
48517;BME280;34310;51.904;4.256;2023-03-15T08:25:16;101906.03;;;14.90;57.24
48517;BME280;34310;51.904;4.256;2023-03-15T08:27:43;101918.25;;;14.91;57.22
48517;BME280;34310;51.904;4.256;2023-03-15T08:30:12;101906.03;;;14.90;57.52
48517;BME280;34310;51.904;4.256;2023-03-15T08:32:42;101907.84;;;14.91;57.36
48517;BME280;34310;51.904;4.256;2023-03-15T08:35:11;101911.34;;;14.91;57.44
48517;BME280;34310;51.904;4.256;2023-03-15T08:37:42;101909.66;;;14.92;57.62
48517;BME280;34310;51.904;4.256;2023-03-15T08:40:16;101909.66;;;14.92;57.88
48517;BME280;34310;51.904;4.256;2023-03-15T08:42:50;101910.56;;;14.92;57.79
48517;BME280;34310;51.904;4.256;2023-03-15T08:45:18;101920.16;;;14.93;58.09
48517;BME280;34310;51.904;4.256;2023-03-15T08:47:45;101920.16;;;14.93;57.72
48517;BME280;34310;51.904;4.256;2023-03-15T08:50:14;101914.16;;;14.94;57.93
48517;BME280;34310;51.904;4.256;2023-03-15T08:52:43;101920.38;;;14.96;57.69
48517;BME280;34310;51.904;4.256;2023-03-15T08:55:10;101916.88;;;14.96;57.82
48517;BME280;34310;51.904;4.256;2023-03-15T08:57:40;101918.66;;;14.97;57.73
48517;BME280;34310;51.904;4.256;2023-03-15T09:00:10;101924.78;;;14.97;58.09
48517;BME280;34310;51.904;4.256;2023-03-15T09:02:48;101925.69;;;14.98;58.37
48517;BME280;34310;51.904;4.256;2023-03-15T09:05:16;101919.69;;;14.99;58.45
48517;BME280;34310;51.904;4.256;2023-03-15T09:07:44;101928.38;;;14.99;58.30
48517;BME280;34310;51.904;4.256;2023-03-15T09:10:14;101922.38;;;15.00;58.39
48517;BME280;34310;51.904;4.256;2023-03-15T09:12:47;101914.69;;;15.02;58.31
48517;BME280;34310;51.904;4.256;2023-03-15T09:15:15;101921.69;;;15.03;58.29
48517;BME280;34310;51.904;4.256;2023-03-15T09:17:43;101914.78;;;15.03;58.32
48517;BME280;34310;51.904;4.256;2023-03-15T09:20:12;101913.13;;;15.04;58.18
48517;BME280;34310;51.904;4.256;2023-03-15T09:22:50;101914.94;;;15.05;58.21
48517;BME280;34310;51.904;4.256;2023-03-15T09:25:18;101905.44;;;15.05;58.18
48517;BME280;34310;51.904;4.256;2023-03-15T09:27:46;101905.53;;;15.07;58.04
48517;BME280;34310;51.904;4.256;2023-03-15T09:30:14;101917.75;;;15.08;58.20
48517;BME280;34310;51.904;4.256;2023-03-15T09:32:41;101903.94;;;15.09;58.30
48517;BME280;34310;51.904;4.256;2023-03-15T09:35:13;101907.56;;;15.11;58.13
48517;BME280;34310;51.904;4.256;2023-03-15T09:37:41;101908.56;;;15.13;57.76
48517;BME280;34310;51.904;4.256;2023-03-15T09:56:58;101915.06;;;15.19;57.58
48517;BME280;34310;51.904;4.256;2023-03-15T09:59:50;101915.97;;;15.20;57.45
48517;BME280;34310;51.904;4.256;2023-03-15T10:02:28;101914.38;;;15.22;57.51
48517;BME280;34310;51.904;4.256;2023-03-15T10:05:12;101914.59;;;15.25;57.49
48517;BME280;34310;51.904;4.256;2023-03-15T10:07:42;101919.22;;;15.29;57.54
48517;BME280;34310;51.904;4.256;2023-03-15T10:10:23;101910.84;;;15.33;57.74
48517;BME280;34310;51.904;4.256;2023-03-15T10:13:23;101911.16;;;15.38;57.91
48517;BME280;34310;51.904;4.256;2023-03-15T10:16:44;101920.97;;;15.42;57.93
48517;BME280;34310;51.904;4.256;2023-03-15T10:19:01;101926.47;;;15.46;58.18
48517;BME280;34310;51.904;4.256;2023-03-15T10:21:39;101926.69;;;15.49;58.27
48517;BME280;34310;51.904;4.256;2023-03-15T10:29:46;101943.84;;;15.59;58.30
48517;BME280;34310;51.904;4.256;2023-03-15T10:32:17;101954.72;;;15.65;58.33
48517;BME280;34310;51.904;4.256;2023-03-15T10:34:51;101956.63;;;15.68;58.26
48517;BME280;34310;51.904;4.256;2023-03-15T10:37:19;101952.41;;;15.70;58.17
48517;BME280;34310;51.904;4.256;2023-03-15T10:39:56;101955.22;;;15.73;58.11
48517;BME280;34310;51.904;4.256;2023-03-15T10:42:29;101963.34;;;15.77;57.87
48517;BME280;34310;51.904;4.256;2023-03-15T10:44:57;101964.34;;;15.79;58.05
48517;BME280;34310;51.904;4.256;2023-03-15T10:47:26;101970.66;;;15.83;58.51
48517;BME280;34310;51.904;4.256;2023-03-15T10:49:58;101979.56;;;15.87;58.07
48517;BME280;34310;51.904;4.256;2023-03-15T10:52:38;101976.28;;;15.89;58.24
48517;BME280;34310;51.904;4.256;2023-03-15T10:55:17;101990.63;;;15.96;58.43
48517;BME280;34310;51.904;4.256;2023-03-15T10:57:56;101989.94;;;15.98;58.10
48517;BME280;34310;51.904;4.256;2023-03-15T11:00:30;101995.25;;;16.00;57.93
48517;BME280;34310;51.904;4.256;2023-03-15T11:03:16;102000.66;;;16.03;57.57
48517;BME280;34310;51.904;4.256;2023-03-15T11:05:49;102004.38;;;16.06;57.75
48517;BME280;34310;51.904;4.256;2023-03-15T11:08:19;102002.06;;;16.11;57.69
48517;BME280;34310;51.904;4.256;2023-03-15T11:10:55;102003.06;;;16.13;57.74
48517;BME280;34310;51.904;4.256;2023-03-15T11:13:25;102002.38;;;16.16;57.96
48517;BME280;34310;51.904;4.256;2023-03-15T11:18:38;101991.69;;;16.24;57.77
48517;BME280;34310;51.904;4.256;2023-03-15T11:21:12;101979.84;;;16.29;57.80
48517;BME280;34310;51.904;4.256;2023-03-15T11:23:50;101987.97;;;16.34;57.66
48517;BME280;34310;51.904;4.256;2023-03-15T11:26:26;101993.38;;;16.37;57.66
48517;BME280;34310;51.904;4.256;2023-03-15T11:29:04;101994.47;;;16.40;57.73
48517;BME280;34310;51.904;4.256;2023-03-15T11:31:35;101996.47;;;16.45;57.90
48517;BME280;34310;51.904;4.256;2023-03-15T11:36:54;101989.38;;;16.55;57.88
48517;BME280;34310;51.904;4.256;2023-03-15T11:39:51;101982.56;;;16.57;57.68
48517;BME280;34310;51.904;4.256;2023-03-15T11:42:48;101985.44;;;16.62;57.93
48517;BME280;34310;51.904;4.256;2023-03-15T11:45:44;101985.78;;;16.66;58.27
48517;BME280;34310;51.904;4.256;2023-03-15T11:48:45;101995.78;;;16.73;58.09
48517;BME280;34310;51.904;4.256;2023-03-15T11:51:13;101986.34;;;16.76;58.35
48517;BME280;34310;51.904;4.256;2023-03-15T11:53:57;101980.56;;;16.80;58.45
48517;BME280;34310;51.904;4.256;2023-03-15T11:59:17;101984.47;;;16.86;58.39
48517;BME280;34310;51.904;4.256;2023-03-15T12:01:58;101981.22;;;16.90;58.55
48517;BME280;34310;51.904;4.256;2023-03-15T12:04:40;101991.16;;;16.96;58.50
48517;BME280;34310;51.904;4.256;2023-03-15T12:10:05;101988.13;;;17.03;58.28
48517;BME280;34310;51.904;4.256;2023-03-15T12:12:55;101984.91;;;17.07;58.44
48517;BME280;34310;51.904;4.256;2023-03-15T12:17:54;101998.44;;;17.15;58.37
48517;BME280;34310;51.904;4.256;2023-03-15T12:20:44;101996.91;;;17.18;58.04
48517;BME280;34310;51.904;4.256;2023-03-15T12:31:43;101990.25;;;17.37;57.94
48517;BME280;34310;51.904;4.256;2023-03-15T12:37:24;101988.91;;;17.43;57.90
48517;BME280;34310;51.904;4.256;2023-03-15T12:40:28;101987.38;;;17.47;57.94
48517;BME280;34310;51.904;4.256;2023-03-15T12:58:52;101971.44;;;17.70;57.30
48517;BME280;34310;51.904;4.256;2023-03-15T13:01:20;101963.69;;;17.72;57.25
48517;BME280;34310;51.904;4.256;2023-03-15T13:03:56;101970.00;;;17.75;57.09
48517;BME280;34310;51.904;4.256;2023-03-15T13:12:13;101959.91;;;17.81;57.02
48517;BME280;34310;51.904;4.256;2023-03-15T13:14:55;101962.69;;;17.84;57.12
48517;BME280;34310;51.904;4.256;2023-03-15T13:17:41;101957.56;;;17.86;56.89
48517;BME280;34310;51.904;4.256;2023-03-15T13:23:15;101976.19;;;17.92;56.71
48517;BME280;34310;51.904;4.256;2023-03-15T13:28:26;101979.91;;;17.95;56.44
48517;BME280;34310;51.904;4.256;2023-03-15T13:31:20;101976.59;;;17.98;56.58
48517;BME280;34310;51.904;4.256;2023-03-15T13:33:50;101984.50;;;18.00;56.23
48517;BME280;34310;51.904;4.256;2023-03-15T13:36:56;101976.75;;;18.01;56.26
48517;BME280;34310;51.904;4.256;2023-03-15T13:39:26;101976.03;;;18.04;56.30
48517;BME280;34310;51.904;4.256;2023-03-15T13:42:21;101982.16;;;18.04;56.22
48517;BME280;34310;51.904;4.256;2023-03-15T13:45:14;101968.38;;;18.07;56.17
48517;BME280;34310;51.904;4.256;2023-03-15T13:47:43;101977.19;;;18.09;55.90
48517;BME280;34310;51.904;4.256;2023-03-15T13:50:17;101972.88;;;18.09;56.02
48517;BME280;34310;51.904;4.256;2023-03-15T13:52:45;101967.72;;;18.11;55.78
48517;BME280;34310;51.904;4.256;2023-03-15T13:55:18;101974.84;;;18.13;55.77
48517;BME280;34310;51.904;4.256;2023-03-15T13:57:52;101978.38;;;18.14;55.66
48517;BME280;34310;51.904;4.256;2023-03-15T14:00:21;101981.97;;;18.16;55.59
48517;BME280;34310;51.904;4.256;2023-03-15T14:03:01;101982.06;;;18.17;55.59
48517;BME280;34310;51.904;4.256;2023-03-15T14:05:32;101980.34;;;18.18;55.56
48517;BME280;34310;51.904;4.256;2023-03-15T14:08:04;101978.72;;;18.20;55.46
48517;BME280;34310;51.904;4.256;2023-03-15T14:10:34;101986.69;;;18.21;55.37
48517;BME280;34310;51.904;4.256;2023-03-15T14:13:25;101990.28;;;18.23;55.37
48517;BME280;34310;51.904;4.256;2023-03-15T14:15:58;101980.72;;;18.24;55.50
48517;BME280;34310;51.904;4.256;2023-03-15T14:18:45;101984.25;;;18.24;55.52
48517;BME280;34310;51.904;4.256;2023-03-15T14:21:19;101975.56;;;18.25;55.36
48517;BME280;34310;51.904;4.256;2023-03-15T14:23:48;101975.66;;;18.27;55.29
48517;BME280;34310;51.904;4.256;2023-03-15T14:26:29;101974.84;;;18.28;55.36
48517;BME280;34310;51.904;4.256;2023-03-15T14:29:44;101971.44;;;18.29;55.24
48517;BME280;34310;51.904;4.256;2023-03-15T14:31:49;101979.25;;;18.29;55.26
48517;BME280;34310;51.904;4.256;2023-03-15T14:34:34;101971.50;;;18.31;55.17
48517;BME280;34310;51.904;4.256;2023-03-15T14:37:07;101973.31;;;18.32;55.04